createdAt,value
2023-02-13T00:01:51.369Z,23.05
2023-02-13T00:03:55.949Z,23.05
2023-02-13T00:06:00.641Z,23.03
2023-02-13T00:08:05.272Z,23.03
2023-02-13T00:10:09.884Z,23.01
2023-02-13T00:12:14.371Z,22.99
2023-02-13T00:14:18.938Z,22.96
2023-02-13T00:16:23.425Z,22.98
2023-02-13T00:18:28.078Z,22.96
2023-02-13T00:20:32.588Z,22.95
2023-02-13T00:22:38.266Z,22.94
2023-02-13T00:24:42.729Z,22.96
2023-02-13T00:26:47.232Z,22.95
2023-02-13T00:28:51.877Z,22.93
2023-02-13T00:30:56.846Z,22.93
2023-02-13T00:33:02.704Z,22.91
2023-02-13T00:35:07.222Z,22.9
2023-02-13T00:37:11.889Z,22.87
2023-02-13T00:39:16.402Z,22.87
2023-02-13T00:41:20.867Z,22.88
2023-02-13T00:43:25.383Z,22.88
2023-02-13T00:45:29.916Z,22.86
2023-02-13T00:47:34.396Z,22.84
2023-02-13T00:49:39.188Z,22.81
2023-02-13T00:51:43.711Z,22.81
2023-02-13T00:53:48.237Z,22.83
2023-02-13T00:55:52.834Z,22.81
2023-02-13T00:57:57.475Z,22.79
2023-02-13T01:00:02.356Z,22.79
2023-02-13T01:02:06.918Z,22.78
2023-02-13T01:04:11.628Z,22.78
2023-02-13T01:06:16.326Z,22.75
2023-02-13T01:08:20.774Z,22.75
2023-02-13T01:10:25.374Z,22.75
2023-02-13T01:12:29.905Z,22.73
2023-02-13T01:14:34.414Z,22.69
2023-02-13T01:16:38.896Z,22.71
2023-02-13T01:18:43.576Z,22.68
2023-02-13T01:20:48.073Z,22.68
2023-02-13T01:22:52.716Z,22.67
2023-02-13T01:24:57.382Z,22.67
2023-02-13T01:27:01.978Z,22.65
2023-02-13T01:29:06.555Z,22.66
2023-02-13T01:31:11.260Z,22.64
2023-02-13T01:33:16.254Z,22.62
2023-02-13T01:35:20.637Z,22.62
2023-02-13T01:37:25.191Z,22.63
2023-02-13T01:39:29.671Z,22.63
2023-02-13T01:41:34.276Z,22.63
2023-02-13T01:43:38.808Z,22.61
2023-02-13T01:45:43.382Z,22.59
2023-02-13T01:47:47.876Z,22.57
2023-02-13T01:49:53.649Z,22.55
2023-02-13T01:51:58.139Z,22.56
2023-02-13T01:54:02.832Z,22.54
2023-02-13T01:56:07.936Z,22.54
2023-02-13T01:58:12.416Z,22.51
2023-02-13T02:00:16.896Z,22.52
2023-02-13T02:02:21.651Z,22.51
2023-02-13T02:04:26.634Z,22.5
2023-02-13T02:06:31.124Z,22.48
2023-02-13T02:08:35.616Z,22.47
2023-02-13T02:10:40.109Z,22.47
2023-02-13T02:12:45.268Z,22.43
2023-02-13T02:14:50.822Z,22.43
2023-02-13T02:16:55.268Z,22.44
2023-02-13T02:18:59.855Z,22.41
2023-02-13T02:21:04.562Z,22.4
2023-02-13T02:23:09.111Z,22.39
2023-02-13T02:25:13.640Z,22.38
2023-02-13T02:27:18.199Z,22.36
2023-02-13T02:29:22.738Z,22.33
2023-02-13T02:31:27.291Z,22.33
2023-02-13T02:33:31.894Z,22.32
2023-02-13T02:35:36.388Z,22.3
2023-02-13T02:37:41.000Z,22.24
2023-02-13T02:39:45.590Z,22.24
2023-02-13T02:41:50.199Z,22.24
2023-02-13T02:43:54.745Z,22.22
2023-02-13T02:45:59.212Z,22.19
2023-02-13T02:48:03.977Z,22.17
2023-02-13T02:50:08.477Z,22.16
2023-02-13T02:52:13.202Z,22.16
2023-02-13T02:54:17.966Z,22.14
2023-02-13T02:56:22.479Z,22.14
2023-02-13T02:58:59.660Z,22.12
2023-02-13T03:01:05.325Z,22.13
2023-02-13T03:03:10.010Z,22.12
2023-02-13T03:05:14.536Z,22.12
2023-02-13T03:07:19.622Z,22.09
2023-02-13T03:09:24.148Z,22.1
2023-02-13T03:11:28.579Z,22.06
2023-02-13T03:13:33.441Z,22.08
2023-02-13T03:15:38.885Z,22.06
2023-02-13T03:17:43.387Z,22.04
2023-02-13T03:19:48.055Z,22.04
2023-02-13T03:21:53.595Z,22.01
2023-02-13T03:23:58.373Z,22.01
2023-02-13T03:26:03.033Z,22.01
2023-02-13T03:28:07.975Z,22
2023-02-13T03:30:12.753Z,21.99
2023-02-13T03:32:17.633Z,21.97
2023-02-13T03:34:22.302Z,21.95
2023-02-13T03:36:26.989Z,21.93
2023-02-13T03:38:31.511Z,21.92
2023-02-13T03:40:36.204Z,21.9
2023-02-13T03:42:40.778Z,21.89
2023-02-13T03:44:45.837Z,21.89
2023-02-13T03:46:50.386Z,21.85
2023-02-13T03:48:54.934Z,21.78
2023-02-13T03:51:00.723Z,21.76
2023-02-13T03:53:05.566Z,21.8
2023-02-13T03:55:10.209Z,21.79
2023-02-13T03:57:14.657Z,21.79
2023-02-13T03:59:19.206Z,21.79
2023-02-13T04:01:24.063Z,21.81
2023-02-13T04:03:28.994Z,21.83
2023-02-13T04:05:33.550Z,21.81
2023-02-13T04:07:38.155Z,21.81
2023-02-13T04:09:42.874Z,21.8
2023-02-13T04:11:47.553Z,21.79
2023-02-13T04:13:52.171Z,21.79
2023-02-13T04:15:56.713Z,21.77
2023-02-13T04:18:01.823Z,21.77
2023-02-13T04:20:06.905Z,21.75
2023-02-13T04:22:11.525Z,21.73
2023-02-13T04:24:15.989Z,21.65
2023-02-13T04:26:20.739Z,21.67
2023-02-13T04:28:25.182Z,21.65
2023-02-13T04:30:30.316Z,21.62
2023-02-13T04:32:34.905Z,21.57
2023-02-13T04:34:39.451Z,21.56
2023-02-13T04:36:43.931Z,21.58
2023-02-13T04:38:48.488Z,21.58
2023-02-13T04:40:52.879Z,21.6
2023-02-13T04:42:57.822Z,21.62
2023-02-13T04:45:02.598Z,21.6
2023-02-13T04:47:07.159Z,21.61
2023-02-13T04:49:11.736Z,21.52
2023-02-13T04:51:16.372Z,21.47
2023-02-13T04:53:20.902Z,21.47
2023-02-13T04:55:25.376Z,21.4
2023-02-13T04:57:29.775Z,21.41
2023-02-13T04:59:34.342Z,21.4
2023-02-13T05:01:38.894Z,21.38
2023-02-13T05:03:43.938Z,21.4
2023-02-13T05:05:48.534Z,21.35
2023-02-13T05:07:52.929Z,21.33
2023-02-13T05:09:57.476Z,21.3
2023-02-13T05:12:02.400Z,21.29
2023-02-13T05:14:07.332Z,21.32
2023-02-13T05:16:11.944Z,21.28
2023-02-13T05:18:16.762Z,21.31
2023-02-13T05:20:22.726Z,21.28
2023-02-13T05:22:27.238Z,21.3
2023-02-13T05:24:31.761Z,21.28
2023-02-13T05:26:36.296Z,21.23
2023-02-13T05:28:40.961Z,21.24
2023-02-13T05:30:45.902Z,21.23
2023-02-13T05:32:50.547Z,21.27
2023-02-13T05:34:55.087Z,21.28
2023-02-13T05:36:59.626Z,21.27
2023-02-13T05:39:04.265Z,21.28
2023-02-13T05:41:08.765Z,21.21
2023-02-13T05:43:13.296Z,21.2
2023-02-13T05:45:17.784Z,21.19
2023-02-13T05:47:22.406Z,21.17
2023-02-13T05:49:26.934Z,21.16
2023-02-13T05:51:31.649Z,21.2
2023-02-13T05:53:36.060Z,21.16
2023-02-13T05:55:40.579Z,21.23
2023-02-13T05:57:45.209Z,21.18
2023-02-13T05:59:49.620Z,21.2
2023-02-13T06:01:54.244Z,21.16
2023-02-13T06:03:59.667Z,21.16
2023-02-13T06:06:07.492Z,21.17
2023-02-13T06:08:12.116Z,21.15
2023-02-13T06:10:16.702Z,21.18
2023-02-13T06:12:21.542Z,21.16
2023-02-13T06:14:26.062Z,21.13
2023-02-13T06:16:30.622Z,21.1
2023-02-13T06:18:35.003Z,21.09
2023-02-13T06:20:39.684Z,21.09
2023-02-13T06:22:44.370Z,21.08
2023-02-13T06:24:48.817Z,21.06
2023-02-13T06:26:53.425Z,21.09
2023-02-13T06:28:58.079Z,21.12
2023-02-13T06:31:02.991Z,21.13
2023-02-13T06:33:08.228Z,21.13
2023-02-13T06:35:12.901Z,21.11
2023-02-13T06:37:17.514Z,21.08
2023-02-13T06:39:22.118Z,21.1
2023-02-13T06:41:26.932Z,21.14
2023-02-13T06:43:31.497Z,21.24
2023-02-13T06:45:36.252Z,21.37
2023-02-13T06:47:40.658Z,21.56
2023-02-13T06:49:45.175Z,21.74
2023-02-13T06:51:49.721Z,21.91
2023-02-13T06:53:54.147Z,22.08
2023-02-13T06:55:58.697Z,22.24
2023-02-13T06:58:03.219Z,22.33
2023-02-13T07:00:08.141Z,22.46
2023-02-13T07:02:12.670Z,22.54
2023-02-13T07:04:17.265Z,22.63
2023-02-13T07:06:21.817Z,22.69
2023-02-13T07:08:26.488Z,22.74
2023-02-13T07:10:31.034Z,22.76
2023-02-13T07:12:35.574Z,22.8
2023-02-13T07:14:40.127Z,22.86
2023-02-13T07:16:44.649Z,22.89
2023-02-13T07:18:49.181Z,22.9
2023-02-13T07:20:53.623Z,22.96
2023-02-13T07:22:58.532Z,22.97
2023-02-13T07:25:03.118Z,23.02
2023-02-13T07:27:08.301Z,23.03
2023-02-13T07:29:12.671Z,23.08
2023-02-13T07:31:17.544Z,23.08
2023-02-13T07:33:22.613Z,23.13
2023-02-13T07:35:27.149Z,23.15
2023-02-13T07:37:31.714Z,23.14
2023-02-13T07:39:36.457Z,23.19
2023-02-13T07:41:40.888Z,23.18
2023-02-13T07:43:45.307Z,23.18
2023-02-13T07:45:49.868Z,23.19
2023-02-13T07:47:54.383Z,23.2
2023-02-13T07:49:58.947Z,23.22
2023-02-13T07:52:03.564Z,23.23
2023-02-13T07:54:08.310Z,23.25
2023-02-13T07:56:13.262Z,23.26
2023-02-13T07:58:18.855Z,23.25
2023-02-13T08:00:23.405Z,23.28
2023-02-13T08:02:28.005Z,23.3
2023-02-13T08:04:32.430Z,23.32
2023-02-13T08:06:36.924Z,23.34
2023-02-13T08:08:41.610Z,23.32
2023-02-13T08:10:46.119Z,23.33
2023-02-13T08:12:50.644Z,23.35
2023-02-13T08:14:55.276Z,23.36
2023-02-13T08:16:59.771Z,23.33
2023-02-13T08:19:04.182Z,23.33
2023-02-13T08:21:08.716Z,23.4
2023-02-13T08:23:13.791Z,23.41
2023-02-13T08:25:18.624Z,23.43
2023-02-13T08:27:23.244Z,23.47
2023-02-13T08:29:27.989Z,23.5
2023-02-13T08:31:32.683Z,23.5
2023-02-13T08:33:38.085Z,23.5
2023-02-13T08:35:42.641Z,23.52
2023-02-13T08:37:47.729Z,23.53
2023-02-13T08:39:52.714Z,23.57
2023-02-13T08:41:57.289Z,23.55
2023-02-13T08:44:01.936Z,23.57
2023-02-13T08:46:06.529Z,23.54
2023-02-13T08:48:11.518Z,23.51
2023-02-13T08:50:16.053Z,23.49
2023-02-13T08:52:20.932Z,23.51
2023-02-13T08:54:25.464Z,23.51
2023-02-13T08:56:30.068Z,23.54
2023-02-13T08:58:34.595Z,23.54
2023-02-13T09:00:39.185Z,23.54
2023-02-13T09:02:43.769Z,23.5
2023-02-13T09:04:48.478Z,23.57
2023-02-13T09:06:53.032Z,23.6
2023-02-13T09:08:57.612Z,23.63
2023-02-13T09:11:02.356Z,23.64
2023-02-13T09:13:06.994Z,23.68
2023-02-13T09:15:11.492Z,23.66
2023-02-13T09:17:15.974Z,23.69
2023-02-13T09:19:20.598Z,23.7
2023-02-13T09:21:25.187Z,23.7
2023-02-13T09:23:29.808Z,23.69
2023-02-13T09:25:34.883Z,23.7
2023-02-13T09:27:39.356Z,23.67
2023-02-13T09:29:44.355Z,23.69
2023-02-13T09:31:49.130Z,23.69
2023-02-13T09:33:54.094Z,23.68
2023-02-13T09:35:59.024Z,23.67
2023-02-13T09:38:03.808Z,23.68
2023-02-13T09:40:08.357Z,23.65
2023-02-13T09:42:13.002Z,23.68
2023-02-13T09:44:17.541Z,23.68
2023-02-13T09:46:22.214Z,23.66
2023-02-13T09:48:27.016Z,23.67
2023-02-13T09:50:31.906Z,23.66
2023-02-13T09:52:36.596Z,23.66
2023-02-13T09:54:41.167Z,23.67
2023-02-13T09:56:45.795Z,23.69
2023-02-13T09:58:50.345Z,23.69
2023-02-13T10:00:54.850Z,23.71
2023-02-13T10:02:59.496Z,23.74
2023-02-13T10:05:04.145Z,23.74
2023-02-13T10:07:09.541Z,23.72
2023-02-13T10:09:14.232Z,23.72
2023-02-13T10:11:18.852Z,23.72
2023-02-13T10:13:23.611Z,23.7
2023-02-13T10:15:28.468Z,23.69
2023-02-13T10:17:33.238Z,23.75
2023-02-13T10:19:37.861Z,23.77
2023-02-13T10:21:42.404Z,23.76
2023-02-13T10:23:46.782Z,23.75
2023-02-13T10:25:51.324Z,23.77
2023-02-13T10:27:55.838Z,23.79
2023-02-13T10:30:00.362Z,23.86
2023-02-13T10:32:05.029Z,23.87
2023-02-13T10:34:10.124Z,23.86
2023-02-13T10:36:14.717Z,23.86
2023-02-13T10:38:19.096Z,23.86
2023-02-13T10:40:24.055Z,23.9
2023-02-13T10:42:28.564Z,23.92
2023-02-13T10:44:33.077Z,23.91
2023-02-13T10:46:37.713Z,23.87
2023-02-13T10:48:42.659Z,23.89
2023-02-13T10:50:47.098Z,23.89
2023-02-13T10:52:51.676Z,23.9
2023-02-13T10:54:56.532Z,23.9
2023-02-13T10:57:01.916Z,23.9
2023-02-13T10:59:06.361Z,23.89
2023-02-13T11:01:10.884Z,23.93
2023-02-13T11:03:15.541Z,23.96
2023-02-13T11:05:19.912Z,23.96
2023-02-13T11:07:24.940Z,24
2023-02-13T11:09:29.564Z,24.02
2023-02-13T11:11:33.961Z,24.05
2023-02-13T11:13:38.672Z,24.04
2023-02-13T11:15:43.404Z,24.04
2023-02-13T11:17:48.298Z,24.05
2023-02-13T11:19:52.842Z,24.06
2023-02-13T11:21:57.465Z,24.06
2023-02-13T11:24:02.190Z,24.06
2023-02-13T11:26:06.738Z,24.07
2023-02-13T11:28:11.211Z,24.07
2023-02-13T11:30:16.010Z,24.09
2023-02-13T11:32:20.742Z,24.1
2023-02-13T11:34:25.389Z,24.1
2023-02-13T11:36:29.957Z,24.1
2023-02-13T11:38:34.588Z,24.09
2023-02-13T11:40:39.428Z,24.07
2023-02-13T11:42:44.090Z,24.09
2023-02-13T11:44:48.770Z,24.08
2023-02-13T11:46:53.623Z,24.11
2023-02-13T11:48:58.405Z,24.08
2023-02-13T11:51:02.927Z,24.07
2023-02-13T11:53:07.476Z,24.11
2023-02-13T11:55:12.091Z,24.15
2023-02-13T11:57:16.532Z,24.17
2023-02-13T11:59:21.081Z,24.15
2023-02-13T12:01:25.723Z,24.18
2023-02-13T12:03:30.780Z,24.18
2023-02-13T12:05:35.943Z,24.17
2023-02-13T12:07:40.431Z,24.17
2023-02-13T12:09:44.982Z,24.16
2023-02-13T12:11:49.659Z,24.16
2023-02-13T12:13:54.189Z,24.14
2023-02-13T12:15:59.431Z,24.14
2023-02-13T12:18:05.453Z,24.14
2023-02-13T12:20:09.951Z,24.11
2023-02-13T12:22:14.540Z,24.14
2023-02-13T12:24:19.184Z,24.13
2023-02-13T12:26:23.723Z,24.14
2023-02-13T12:28:28.119Z,24.12
2023-02-13T12:30:32.828Z,24.12
2023-02-13T12:32:38.248Z,24.13
2023-02-13T12:34:42.999Z,24.17
2023-02-13T12:36:47.438Z,24.2
2023-02-13T12:38:51.918Z,24.21
2023-02-13T12:40:56.753Z,24.18
2023-02-13T12:43:02.875Z,24.14
2023-02-13T12:45:07.293Z,24.16
2023-02-13T12:47:11.899Z,24.19
2023-02-13T12:49:16.384Z,24.2
2023-02-13T12:51:21.026Z,24.24
2023-02-13T12:53:25.472Z,24.19
2023-02-13T12:55:32.962Z,24.19
2023-02-13T12:57:38.023Z,24.18
2023-02-13T12:59:42.527Z,24.19
2023-02-13T13:01:47.383Z,24.18
2023-02-13T13:03:52.021Z,24.16
2023-02-13T13:06:08.748Z,24.2
2023-02-13T13:08:16.373Z,24.16
2023-02-13T13:10:20.902Z,24.16
2023-02-13T13:12:25.549Z,24.17
2023-02-13T13:14:29.963Z,24.2
2023-02-13T13:16:34.667Z,24.18
2023-02-13T13:18:39.412Z,24.18
2023-02-13T13:20:43.924Z,24.17
2023-02-13T13:22:48.404Z,24.15
2023-02-13T13:24:53.002Z,24.07
2023-02-13T13:26:57.541Z,24.11
2023-02-13T13:29:02.424Z,24.11
2023-02-13T13:31:07.101Z,24.1
2023-02-13T13:33:12.168Z,24.07
2023-02-13T13:35:16.686Z,24
2023-02-13T13:37:21.181Z,23.79
2023-02-13T13:39:26.066Z,23.71
2023-02-13T13:41:30.740Z,23.63
2023-02-13T13:43:35.404Z,23.55
2023-02-13T13:45:39.924Z,23.52
2023-02-13T13:47:44.449Z,23.45
2023-02-13T13:49:49.077Z,23.36
2023-02-13T13:51:56.688Z,23.27
2023-02-13T13:54:01.202Z,23.22
2023-02-13T13:56:06.232Z,23.16
2023-02-13T13:58:10.736Z,23.11
2023-02-13T14:00:15.253Z,23.1
2023-02-13T14:02:20.010Z,23.07
2023-02-13T14:04:24.833Z,22.99
2023-02-13T14:06:29.649Z,22.93
2023-02-13T14:08:34.408Z,22.95
2023-02-13T14:10:38.941Z,22.95
2023-02-13T14:12:43.583Z,22.97
2023-02-13T14:14:48.058Z,23.01
2023-02-13T14:16:52.689Z,23.05
2023-02-13T14:18:57.206Z,23.11
2023-02-13T14:21:01.751Z,23.21
2023-02-13T14:23:06.421Z,23.26
2023-02-13T14:25:11.039Z,23.33
2023-02-13T14:27:15.583Z,23.38
2023-02-13T14:29:20.093Z,23.43
2023-02-13T14:31:24.701Z,23.51
2023-02-13T14:33:29.609Z,23.58
2023-02-13T14:35:33.998Z,23.65
2023-02-13T14:37:38.630Z,23.71
2023-02-13T14:39:43.044Z,23.74
2023-02-13T14:41:47.868Z,23.84
2023-02-13T14:43:53.046Z,23.87
2023-02-13T14:45:57.961Z,23.95
2023-02-13T14:48:02.618Z,24.01
2023-02-13T14:50:07.190Z,24.07
2023-02-13T14:52:11.747Z,24.13
2023-02-13T14:54:16.426Z,24.18
2023-02-13T14:56:20.996Z,24.21
2023-02-13T14:58:25.756Z,24.24
2023-02-13T15:00:30.240Z,24.29
2023-02-13T15:02:35.080Z,24.29
2023-02-13T15:04:39.667Z,24.35
2023-02-13T15:06:44.314Z,24.38
2023-02-13T15:08:48.736Z,24.41
2023-02-13T15:10:53.266Z,24.44
2023-02-13T15:12:57.822Z,24.42
2023-02-13T15:15:02.929Z,24.51
2023-02-13T15:17:07.606Z,24.52
2023-02-13T15:19:12.107Z,24.54
2023-02-13T15:21:16.644Z,24.5
2023-02-13T15:23:21.155Z,24.52
2023-02-13T15:25:26.828Z,24.52
2023-02-13T15:27:31.452Z,24.51
2023-02-13T15:29:49.111Z,24.48
2023-02-13T15:31:54.587Z,24.48
2023-02-13T15:33:59.490Z,24.52
2023-02-13T15:36:04.068Z,24.55
2023-02-13T15:38:08.816Z,24.54
2023-02-13T15:40:13.295Z,24.67
2023-02-13T15:42:18.006Z,24.67
2023-02-13T15:44:25.151Z,24.67
2023-02-13T15:46:29.795Z,24.75
2023-02-13T15:48:34.499Z,24.77
2023-02-13T15:50:39.150Z,24.8
2023-02-13T15:52:44.019Z,24.84
2023-02-13T15:54:48.651Z,24.86
2023-02-13T15:56:53.520Z,24.88
2023-02-13T15:58:58.127Z,24.88
2023-02-13T16:01:02.699Z,24.91
2023-02-13T16:03:07.375Z,24.89
2023-02-13T16:05:12.649Z,24.89
2023-02-13T16:07:17.233Z,24.9
2023-02-13T16:09:22.163Z,24.93
2023-02-13T16:11:26.676Z,24.93
2023-02-13T16:13:31.372Z,24.91
2023-02-13T16:15:35.901Z,24.9
2023-02-13T16:17:40.824Z,24.92
2023-02-13T16:19:45.346Z,24.95
2023-02-13T16:21:49.749Z,24.96
2023-02-13T16:23:54.580Z,24.95
2023-02-13T16:25:58.971Z,24.98
2023-02-13T16:28:03.739Z,25.03
2023-02-13T16:30:08.264Z,25.07
2023-02-13T16:32:13.104Z,25.08
2023-02-13T16:34:17.886Z,25.08
2023-02-13T16:36:22.446Z,25.12
2023-02-13T16:38:27.013Z,25.15
2023-02-13T16:40:31.541Z,25.21
2023-02-13T16:42:35.961Z,25.19
2023-02-13T16:44:40.405Z,25.19
2023-02-13T16:46:44.807Z,25.24
2023-02-13T16:48:51.617Z,25.28
2023-02-13T16:50:56.234Z,25.28
2023-02-13T16:53:01.647Z,25.3
2023-02-13T16:55:06.289Z,25.35
2023-02-13T16:57:10.703Z,25.33
2023-02-13T16:59:15.132Z,25.34
2023-02-13T17:01:19.678Z,25.35
2023-02-13T17:03:24.438Z,25.35
2023-02-13T17:05:28.898Z,25.37
2023-02-13T17:07:33.271Z,25.4
2023-02-13T17:09:37.728Z,25.42
2023-02-13T17:11:42.191Z,25.45
2023-02-13T17:13:46.612Z,25.5
2023-02-13T17:15:51.035Z,25.41
2023-02-13T17:17:55.526Z,25.43
2023-02-13T17:19:59.966Z,25.42
2023-02-13T17:22:04.831Z,25.47
2023-02-13T17:24:09.215Z,25.46
2023-02-13T17:26:13.633Z,25.46
2023-02-13T17:28:18.042Z,25.45
2023-02-13T17:30:22.577Z,25.48
2023-02-13T17:32:27.302Z,25.52
2023-02-13T17:34:31.759Z,25.53
2023-02-13T17:36:36.198Z,25.53
2023-02-13T17:38:40.673Z,25.52
2023-02-13T17:40:45.206Z,25.51
2023-02-13T17:42:49.702Z,25.49
2023-02-13T17:44:54.051Z,25.51
2023-02-13T17:46:58.673Z,25.56
2023-02-13T17:49:03.059Z,25.59
2023-02-13T17:51:07.498Z,25.56
2023-02-13T17:53:11.925Z,25.59
2023-02-13T17:55:16.308Z,25.57
2023-02-13T17:57:20.749Z,25.64
2023-02-13T17:59:25.603Z,25.65
2023-02-13T18:01:30.474Z,25.64
2023-02-13T18:03:34.994Z,25.65
2023-02-13T18:05:39.451Z,25.65
2023-02-13T18:07:43.885Z,25.67
2023-02-13T18:09:48.283Z,25.72
2023-02-13T18:12:04.716Z,25.71
2023-02-13T18:14:09.807Z,25.73
2023-02-13T18:16:14.288Z,25.74
2023-02-13T18:18:18.921Z,25.74
2023-02-13T18:20:23.371Z,25.75
2023-02-13T18:22:27.796Z,25.65
2023-02-13T18:24:32.238Z,25.5
2023-02-13T18:26:36.648Z,25.36
2023-02-13T18:28:41.054Z,25.32
2023-02-13T18:30:45.596Z,25.3
2023-02-13T18:32:50.398Z,25.32
2023-02-13T18:34:54.997Z,25.26
2023-02-13T18:36:59.420Z,25.3
2023-02-13T18:39:03.957Z,25.26
2023-02-13T18:41:08.510Z,25.32
2023-02-13T18:43:12.995Z,25.35
2023-02-13T18:45:17.443Z,25.35
2023-02-13T18:47:21.907Z,25.38
2023-02-13T18:49:26.334Z,25.37
2023-02-13T18:51:30.848Z,25.41
2023-02-13T18:53:35.260Z,25.37
2023-02-13T18:55:39.683Z,25.33
2023-02-13T18:57:44.106Z,25.39
2023-02-13T18:59:48.728Z,25.45
2023-02-13T19:01:53.114Z,25.48
2023-02-13T19:03:57.591Z,25.48
2023-02-13T19:06:02.011Z,25.5
2023-02-13T19:08:06.547Z,25.5
2023-02-13T19:10:10.954Z,25.51
2023-02-13T19:12:15.462Z,25.55
2023-02-13T19:14:19.909Z,25.58
2023-02-13T19:16:24.492Z,25.57
2023-02-13T19:18:28.914Z,25.59
2023-02-13T19:20:33.349Z,25.59
2023-02-13T19:22:37.741Z,25.61
2023-02-13T19:24:42.309Z,25.63
2023-02-13T19:26:46.851Z,25.61
2023-02-13T19:28:51.232Z,25.58
2023-02-13T19:30:55.786Z,25.6
2023-02-13T19:33:01.587Z,25.6
2023-02-13T19:35:06.011Z,25.58
2023-02-13T19:37:10.418Z,25.48
2023-02-13T19:39:15.472Z,25.35
2023-02-13T19:41:19.993Z,25.23
2023-02-13T19:43:24.474Z,25.21
2023-02-13T19:45:28.901Z,25.16
2023-02-13T19:47:33.316Z,25.13
2023-02-13T19:49:37.972Z,25.1
2023-02-13T19:51:42.502Z,25.05
2023-02-13T19:53:46.946Z,25.01
2023-02-13T19:55:51.376Z,25
2023-02-13T19:57:55.877Z,24.98
2023-02-13T20:00:00.345Z,24.96
2023-02-13T20:02:04.988Z,24.93
2023-02-13T20:04:09.813Z,24.91
2023-02-13T20:06:14.362Z,24.87
2023-02-13T20:08:19.185Z,24.77
2023-02-13T20:10:23.731Z,24.7
2023-02-13T20:12:28.487Z,24.6
2023-02-13T20:14:33.109Z,24.5
2023-02-13T20:16:37.501Z,24.41
2023-02-13T20:18:41.925Z,24.36
2023-02-13T20:20:46.302Z,24.36
2023-02-13T20:22:50.735Z,24.37
2023-02-13T20:24:55.188Z,24.36
2023-02-13T20:27:00.658Z,24.39
2023-02-13T20:29:05.215Z,24.47
2023-02-13T20:31:09.888Z,24.6
2023-02-13T20:33:15.285Z,24.7
2023-02-13T20:35:19.967Z,24.83
2023-02-13T20:37:24.477Z,24.93
2023-02-13T20:39:29.051Z,25.02
2023-02-13T20:41:33.550Z,25.09
2023-02-13T20:43:38.174Z,25.15
2023-02-13T20:45:42.865Z,25.18
2023-02-13T20:47:47.674Z,25.25
2023-02-13T20:49:52.091Z,25.26
2023-02-13T20:51:56.594Z,25.27
2023-02-13T20:54:01.169Z,25.31
2023-02-13T20:56:05.815Z,25.34
2023-02-13T20:58:10.213Z,25.32
2023-02-13T21:00:14.889Z,25.38
2023-02-13T21:02:19.567Z,25.39
2023-02-13T21:04:24.331Z,25.41
2023-02-13T21:06:28.836Z,25.35
2023-02-13T21:08:33.257Z,25.41
2023-02-13T21:10:37.800Z,25.44
2023-02-13T21:12:42.461Z,25.47
2023-02-13T21:14:47.861Z,25.45
2023-02-13T21:16:52.444Z,25.44
2023-02-13T21:18:57.248Z,25.42
2023-02-13T21:21:01.878Z,25.37
2023-02-13T21:23:06.276Z,25.35
2023-02-13T21:25:10.832Z,25.39
2023-02-13T21:27:15.197Z,25.44
2023-02-13T21:29:19.878Z,25.42
2023-02-13T21:31:24.419Z,25.32
2023-02-13T21:33:29.524Z,25.25
2023-02-13T21:35:34.089Z,25.2
2023-02-13T21:37:38.529Z,25.12
2023-02-13T21:39:43.043Z,25.1
2023-02-13T21:41:47.655Z,25.11
2023-02-13T21:43:52.174Z,25.06
2023-02-13T21:45:56.726Z,25.01
2023-02-13T21:48:01.461Z,24.98
2023-02-13T21:50:05.896Z,24.87
2023-02-13T21:52:10.671Z,24.67
2023-02-13T21:54:15.104Z,24.53
2023-02-13T21:56:19.760Z,24.49
2023-02-13T21:58:24.153Z,24.38
2023-02-13T22:00:28.608Z,24.28
2023-02-13T22:02:33.328Z,24.18
2023-02-13T22:04:38.212Z,24.15
2023-02-13T22:06:42.626Z,24.05
2023-02-13T22:08:47.170Z,24.02
2023-02-13T22:10:51.838Z,24
2023-02-13T22:12:56.348Z,24
2023-02-13T22:15:01.275Z,23.99
2023-02-13T22:17:05.912Z,23.93
2023-02-13T22:19:10.613Z,23.83
2023-02-13T22:21:15.163Z,23.73
2023-02-13T22:23:19.689Z,23.86
2023-02-13T22:25:24.562Z,23.9
2023-02-13T22:27:28.952Z,23.95
2023-02-13T22:29:33.369Z,23.93
2023-02-13T22:31:38.031Z,23.91
2023-02-13T22:33:45.621Z,23.93
2023-02-13T22:36:06.962Z,23.93
2023-02-13T22:38:11.597Z,23.89
2023-02-13T22:40:15.977Z,23.85
2023-02-13T22:42:20.480Z,23.81
2023-02-13T22:44:24.962Z,23.74
2023-02-13T22:46:29.759Z,23.75
2023-02-13T22:48:34.582Z,23.76
2023-02-13T22:50:39.028Z,23.76
2023-02-13T22:52:43.535Z,23.75
2023-02-13T22:54:47.951Z,23.74
2023-02-13T22:56:52.348Z,23.75
2023-02-13T22:58:56.769Z,23.72
2023-02-13T23:01:01.657Z,23.68
2023-02-13T23:03:06.423Z,23.68
2023-02-13T23:05:11.001Z,23.68
2023-02-13T23:07:15.546Z,23.68
2023-02-13T23:09:20.075Z,23.65
2023-02-13T23:11:24.486Z,23.61
2023-02-13T23:13:29.053Z,23.61
2023-02-13T23:15:33.518Z,23.56
2023-02-13T23:17:38.204Z,23.58
2023-02-13T23:19:42.734Z,23.56
2023-02-13T23:21:47.358Z,23.54
2023-02-13T23:23:52.046Z,23.53
2023-02-13T23:25:56.434Z,23.53
2023-02-13T23:28:00.817Z,23.52
2023-02-13T23:30:05.408Z,23.52
2023-02-13T23:32:10.183Z,23.51
2023-02-13T23:34:15.271Z,23.49
2023-02-13T23:36:19.666Z,23.48
2023-02-13T23:38:24.218Z,23.47
2023-02-13T23:40:28.829Z,23.44
2023-02-13T23:42:33.316Z,23.43
2023-02-13T23:44:37.828Z,23.43
2023-02-13T23:46:42.456Z,23.43
2023-02-13T23:48:47.398Z,23.39
2023-02-13T23:50:51.823Z,23.38
2023-02-13T23:52:56.924Z,23.36
2023-02-13T23:55:01.326Z,23.37
2023-02-13T23:57:05.808Z,23.37
2023-02-13T23:59:10.801Z,23.36
